^^
Datos históricos de la estación: Murcia-Puente Tocinos
Diario Informe para Mayo 15, 2021 Unidades:  Métrico    Ingés   Ambas
Diario Semanal Mensual Anual
  Máxima: Mínima: Promedio:
Temperatura: 31.8 °C 16.2 °C 23.5 °C
Punto de rocio: 14.4 °C 8.2 °C 11.9 °C
Humedad: 85% 23.7% 54%
Velocidad viento: 18km/h 0km/h 7.2km/h
Racha viento: 29.6km/h - -
Viento- - Sur
Presión: 1017.0 hPa 1009.6 hPa -
Precipitación: 0.0 mm    
 
 
Tabla de datos para Mayo 15, 2021
Hora Temperatura Punto de rocio Presión Viento Velocidad viento Racha viento Humedad Intensidad lluvia(por hora) Nubes
00:04 17.5 °C 14.4 °C 1017.0 hPa NNE 10.3 km/h 17.7 km/h 82% 0.0 mm
00:09 17.4 °C 14.3 °C 1017.0 hPa NNE 10.3 km/h 16.1 km/h 82% 0.0 mm
00:14 17.4 °C 14.3 °C 1017.0 hPa NNE 10.3 km/h 16.1 km/h 82% 0.0 mm
00:19 17.4 °C 14.3 °C 1017.0 hPa NNE 9.8 km/h 15.6 km/h 82% 0.0 mm
00:24 17.3 °C 14.4 °C 1017.0 hPa NNE 9.5 km/h 16.1 km/h 82.7% 0.0 mm
00:29 17.3 °C 14.4 °C 1017.0 hPa NNE 9 km/h 14.5 km/h 83% 0.0 mm
00:34 17.3 °C 14.4 °C 1016.9 hPa NNE 8.7 km/h 14.5 km/h 83% 0.0 mm
00:39 17.3 °C 14.4 °C 1016.9 hPa NNE 8.7 km/h 14.8 km/h 83% 0.0 mm
00:44 17.3 °C 14.4 °C 1016.9 hPa NNE 8.7 km/h 14.5 km/h 83% 0.0 mm
00:49 17.2 °C 14.3 °C 1016.8 hPa North 8 km/h 11.3 km/h 83% 0.0 mm
00:54 17.2 °C 14.3 °C 1016.8 hPa NNE 7.6 km/h 11.3 km/h 83% 0.0 mm
00:59 17.2 °C 14.3 °C 1016.8 hPa NNE 6.8 km/h 11.1 km/h 83.3% 0.0 mm
01:04 17.1 °C 14.4 °C 1016.8 hPa North 6.5 km/h 11.3 km/h 84% 0.0 mm
01:09 17.1 °C 14.4 °C 1016.8 hPa North 6.5 km/h 11.3 km/h 84% 0.0 mm
01:14 17 °C 14.3 °C 1016.8 hPa North 6.5 km/h 11.3 km/h 84% 0.0 mm
01:19 17 °C 14.2 °C 1016.7 hPa NNE 6.5 km/h 11.1 km/h 84% 0.0 mm
01:24 16.9 °C 14.3 °C 1016.7 hPa NNE 6.5 km/h 11.3 km/h 84.9% 0.0 mm
01:29 16.9 °C 14.3 °C 1016.7 hPa North 5.6 km/h 8.4 km/h 85% 0.0 mm
01:34 16.9 °C 14.3 °C 1016.6 hPa NNE 5 km/h 8 km/h 85% 0.0 mm
01:39 16.9 °C 14.3 °C 1016.6 hPa NE 3.8 km/h 8 km/h 85% 0.0 mm
01:44 16.9 °C 14.3 °C 1016.6 hPa NE 3.2 km/h 4.8 km/h 85% 0.0 mm
01:49 16.9 °C 14.3 °C 1016.6 hPa NNO 2.6 km/h 5.8 km/h 85% 0.0 mm
01:54 16.9 °C 14.3 °C 1016.6 hPa NO 2.2 km/h 6.4 km/h 85% 0.0 mm
01:59 16.9 °C 14.3 °C 1016.6 hPa NO 2.9 km/h 6.4 km/h 84.6% 0.0 mm
02:04 16.9 °C 14.2 °C 1016.6 hPa NO 3.2 km/h 5.8 km/h 84% 0.0 mm
02:09 16.9 °C 14.3 °C 1016.6 hPa ONO 2.6 km/h 6.4 km/h 84.9% 0.0 mm
02:14 16.9 °C 14.3 °C 1016.6 hPa ONO 2.2 km/h 4.8 km/h 85% 0.0 mm
02:19 16.9 °C 14.4 °C 1016.4 hPa Oeste 2.2 km/h 7.4 km/h 85% 0.0 mm
02:24 17 °C 14.4 °C 1016.4 hPa SO 2.2 km/h 8 km/h 84.4% 0.0 mm
02:29 17.1 °C 14.4 °C 1016.4 hPa OSO 3.9 km/h 8 km/h 84% 0.0 mm
02:34 17.1 °C 14.4 °C 1016.2 hPa SO 4.7 km/h 8 km/h 84% 0.0 mm
02:39 17.1 °C 14.4 °C 1016.2 hPa OSO 3.8 km/h 5.8 km/h 84% 0.0 mm
02:44 17.1 °C 14.4 °C 1016.2 hPa Oeste 3.2 km/h 6.4 km/h 84% 0.0 mm
02:49 17.1 °C 14.4 °C 1016.1 hPa Oeste 3 km/h 6.4 km/h 84% 0.0 mm
02:54 17.1 °C 14.4 °C 1016.1 hPa NO 2.9 km/h 8 km/h 84% 0.0 mm
02:59 17.1 °C 14.1 °C 1016.1 hPa NO 3.6 km/h 8 km/h 83% 0.0 mm
03:04 17 °C 14.1 °C 1016.0 hPa NO 3.9 km/h 7.4 km/h 83% 0.0 mm
03:09 16.9 °C 14 °C 1016.0 hPa NO 3.9 km/h 8 km/h 83% 0.0 mm
03:14 16.9 °C 14 °C 1016.0 hPa NO 3.9 km/h 8 km/h 83% 0.0 mm
03:19 16.8 °C 14 °C 1016.0 hPa NNO 3.3 km/h 4.8 km/h 83% 0.0 mm
03:24 16.8 °C 13.9 °C 1016.0 hPa North 2.9 km/h 3.2 km/h 83% 0.0 mm
03:29 16.8 °C 13.9 °C 1016.0 hPa North 1 km/h 3.7 km/h 83% 0.0 mm
03:34 16.8 °C 13.9 °C 1015.9 hPa Calm   5.8 km/h 83.2% 0.0 mm
03:39 16.8 °C 14 °C 1015.9 hPa ESE 1.3 km/h 7.6 km/h 83.1% 0.0 mm
03:44 16.8 °C 13.9 °C 1016.0 hPa ESE 2.2 km/h 8 km/h 83% 0.0 mm
03:49 16.8 °C 13.9 °C 1016.0 hPa ESE 2.9 km/h 8 km/h 83% 0.0 mm
03:54 16.8 °C 13.7 °C 1016.0 hPa ESE 3.2 km/h 8 km/h 82.1% 0.0 mm
03:59 16.8 °C 13.6 °C 1016.0 hPa SSE 3.7 km/h 8.4 km/h 81.4% 0.0 mm
04:04 16.8 °C 13.5 °C 1015.6 hPa Sur 3.9 km/h 9.3 km/h 81% 0.0 mm
04:09 16.8 °C 13.5 °C 1015.6 hPa Sur 5.1 km/h 9.7 km/h 81% 0.0 mm
04:14 16.8 °C 13.5 °C 1015.6 hPa Sur 5.8 km/h 9.7 km/h 81% 0.0 mm
04:19 16.9 °C 13.6 °C 1015.5 hPa Sur 6.2 km/h 9.7 km/h 81% 0.0 mm
04:24 16.9 °C 13.6 °C 1015.5 hPa SSO 6.5 km/h 8 km/h 81% 0.0 mm
04:29 16.9 °C 13.6 °C 1015.6 hPa SO 5.3 km/h 8 km/h 81% 0.0 mm
04:34 16.9 °C 13.6 °C 1015.6 hPa Sur 4.7 km/h 10 km/h 81% 0.0 mm
04:39 16.9 °C 13.6 °C 1015.6 hPa Sur 5.3 km/h 9.7 km/h 81% 0.0 mm
04:44 16.8 °C 13.6 °C 1015.6 hPa SSO 5.8 km/h 9.7 km/h 81% 0.0 mm
04:49 16.8 °C 13.5 °C 1015.6 hPa SO 5.3 km/h 9.7 km/h 81% 0.0 mm
04:54 16.8 °C 13.4 °C 1015.6 hPa SO 5 km/h 9.7 km/h 80.5% 0.0 mm
04:59 16.8 °C 13.3 °C 1015.6 hPa SO 5.5 km/h 11.1 km/h 80% 0.0 mm
05:04 16.8 °C 13.4 °C 1015.6 hPa SSO 5.8 km/h 11.3 km/h 80.1% 0.0 mm
05:09 16.8 °C 13.5 °C 1015.6 hPa SSO 5.1 km/h 9.5 km/h 80.9% 0.0 mm
05:14 16.7 °C 13.5 °C 1015.6 hPa SSO 4.7 km/h 9.7 km/h 81% 0.0 mm
05:19 16.7 °C 13.4 °C 1015.5 hPa SO 4.7 km/h 9.5 km/h 81% 0.0 mm
05:24 16.7 °C 13.4 °C 1015.5 hPa SO 4.7 km/h 9.7 km/h 81% 0.0 mm
05:29 16.7 °C 13.4 °C 1015.5 hPa SO 4.9 km/h 8.4 km/h 81% 0.0 mm
05:34 16.7 °C 13.4 °C 1015.3 hPa SO 5 km/h 8 km/h 81% 0.0 mm
05:39 16.7 °C 13.3 °C 1015.3 hPa SSO 4.8 km/h 8.4 km/h 80.3% 0.0 mm
05:44 16.7 °C 13.2 °C 1015.3 hPa SO 4.6 km/h 8.4 km/h 80% 0.0 mm
05:49 16.6 °C 13.1 °C 1015.2 hPa OSO 4.8 km/h 8 km/h 80% 0.0 mm
05:54 16.6 °C 13.1 °C 1015.2 hPa SO 5 km/h 8 km/h 80% 0.0 mm
05:59 16.5 °C 13.1 °C 1015.3 hPa SO 4.8 km/h 9.3 km/h 80.5% 0.0 mm
06:04 16.5 °C 13.2 °C 1015.3 hPa SO 4.6 km/h 9.7 km/h 81% 0.0 mm
06:09 16.5 °C 13.2 °C 1015.3 hPa SSO 4.2 km/h 8 km/h 81% 0.0 mm
06:14 16.4 °C 13.1 °C 1015.3 hPa SO 3.9 km/h 8 km/h 81% 0.0 mm
06:19 16.4 °C 13.1 °C 1015.2 hPa SSO 3.9 km/h 7.6 km/h 81% 0.0 mm
06:24 16.4 °C 13.1 °C 1015.2 hPa SSO 3.9 km/h 8.4 km/h 81% 0.0 mm
06:29 16.4 °C 13.1 °C 1015.2 hPa SSO 4.4 km/h 9.5 km/h 81% 0.0 mm
06:34 16.4 °C 13 °C 1015.2 hPa SSE 4.7 km/h 10 km/h 80.5% 0.0 mm
06:39 16.4 °C 12.9 °C 1015.2 hPa SSE 5.7 km/h 10 km/h 80% 0.0 mm
06:44 16.3 °C 12.8 °C 1015.2 hPa Sur 6.5 km/h 11.1 km/h 80% 0.0 mm
06:49 16.3 °C 12.8 °C 1015.1 hPa Sur 6.8 km/h 11.3 km/h 80% 0.0 mm
06:54 16.2 °C 12.9 °C 1015.1 hPa Sur 6.9 km/h 11.1 km/h 80.8% 0.0 mm
06:59 16.2 °C 12.9 °C 1015.3 hPa SSO 6.6 km/h 11.3 km/h 81% 0.0 mm
07:04 16.2 °C 13 °C 1015.3 hPa SSO 6.5 km/h 9.7 km/h 81% 0.0 mm
07:09 16.3 °C 13 °C 1015.3 hPa SSO 5.5 km/h 8.4 km/h 80.7% 0.0 mm
07:14 16.3 °C 12.8 °C 1015.3 hPa SSO 5 km/h 10 km/h 80% 0.0 mm
07:19 16.3 °C 12.8 °C 1015.3 hPa SSO 5.5 km/h 10.3 km/h 80% 0.0 mm
07:24 16.3 °C 12.8 °C 1015.3 hPa Sur 5.8 km/h 11.3 km/h 80% 0.0 mm
07:29 16.2 °C 12.8 °C 1015.4 hPa Sur 7 km/h 11.9 km/h 80% 0.0 mm
07:34 16.3 °C 12.8 °C 1015.4 hPa Sur 7.6 km/h 11.9 km/h 80% 0.0 mm
07:39 16.3 °C 12.8 °C 1015.4 hPa Sur 8 km/h 11.3 km/h 80% 0.0 mm
07:44 16.3 °C 12.8 °C 1015.4 hPa Sur 8.4 km/h 11.9 km/h 80% 0.0 mm
07:49 16.3 °C 12.9 °C 1015.4 hPa SSO 7.9 km/h 10 km/h 80% 0.0 mm
07:54 16.5 °C 13 °C 1015.4 hPa SO 7.6 km/h 9.7 km/h 80% 0.0 mm
07:59 16.6 °C 13 °C 1015.4 hPa SO 6.3 km/h 9.7 km/h 79.3% 0.0 mm
08:04 16.7 °C 12.9 °C 1015.4 hPa SO 5.8 km/h 16.7 km/h 78.4% 0.0 mm
08:09 16.7 °C 12.8 °C 1015.4 hPa SO 6.5 km/h 16.1 km/h 78% 0.0 mm
08:14 16.8 °C 12.9 °C 1015.4 hPa SSO 6.9 km/h 12.9 km/h 78% 0.0 mm
08:19 16.9 °C 13 °C 1015.4 hPa SSO 6.6 km/h 18.5 km/h 78% 0.0 mm
08:24 16.9 °C 13.1 °C 1015.4 hPa Sur 6.5 km/h 19.3 km/h 78% 0.0 mm
08:29 17.1 °C 13.2 °C 1015.4 hPa SSO 7.6 km/h 11.3 km/h 78% 0.0 mm
08:34 17.3 °C 13.4 °C 1015.3 hPa SSO 8.4 km/h 13.7 km/h 78% 0.0 mm
08:39 17.4 °C 13.4 °C 1015.3 hPa SO 7.8 km/h 14.5 km/h 77.6% 0.0 mm
08:44 17.6 °C 13.5 °C 1015.4 hPa SO 7.6 km/h 13 km/h 77% 0.0 mm
08:49 17.6 °C 13.5 °C 1015.4 hPa SO 7.1 km/h 13 km/h 77% 0.0 mm
08:54 17.7 °C 13.6 °C 1015.4 hPa SO 6.9 km/h 11.9 km/h 76.7% 0.0 mm
08:59 17.8 °C 13.5 °C 1015.4 hPa SSO 6.9 km/h 11.3 km/h 76% 0.0 mm
09:04 18 °C 13.5 °C 1015.4 hPa SO 6.9 km/h 11.9 km/h 75.2% 0.0 mm
09:09 18.1 °C 13.6 °C 1015.4 hPa SSO 6.6 km/h 11.1 km/h 75% 0.0 mm
09:14 18.2 °C 13.6 °C 1015.4 hPa Sur 6.5 km/h 14 km/h 74.7% 0.0 mm
09:19 18.3 °C 13.5 °C 1015.4 hPa Sur 6.7 km/h 14.8 km/h 73.5% 0.0 mm
09:24 18.5 °C 13.5 °C 1015.4 hPa SSO 6.9 km/h 11.1 km/h 72.7% 0.0 mm
09:29 18.7 °C 13.5 °C 1015.4 hPa SSO 7.4 km/h 11.9 km/h 72% 0.0 mm
09:34 18.8 °C 13.6 °C 1015.4 hPa Sur 7.6 km/h 13 km/h 71.6% 0.0 mm
09:39 19 °C 13.5 °C 1015.4 hPa Sur 7.6 km/h 12.9 km/h 70.7% 0.0 mm
09:44 19.2 °C 13.5 °C 1015.4 hPa Sur 7.6 km/h 14 km/h 69.7% 0.0 mm
09:49 19.3 °C 13.4 °C 1015.4 hPa Sur 8.1 km/h 14.8 km/h 68.7% 0.0 mm
09:54 19.4 °C 13.3 °C 1015.4 hPa SSO 8.4 km/h 14.5 km/h 68.1% 0.0 mm
09:59 19.6 °C 13.5 °C 1015.4 hPa Sur 8.4 km/h 12.9 km/h 67.7% 0.0 mm
10:04 19.8 °C 13.3 °C 1015.4 hPa SO 8.4 km/h 13 km/h 66.2% 0.0 mm
10:09 20 °C 13.1 °C 1015.4 hPa SSO 7.4 km/h 12.9 km/h 64.8% 0.0 mm
10:14 20.2 °C 12.8 °C 1015.4 hPa Sur 6.9 km/h 11.9 km/h 62.8% 0.0 mm
10:19 20.3 °C 12.7 °C 1015.1 hPa Sur 7.3 km/h 11.9 km/h 61.7% 0.0 mm
10:24 20.6 °C 12.8 °C 1015.1 hPa SO 7.6 km/h 11.3 km/h 61.1% 0.0 mm
10:29 20.9 °C 12.9 °C 1015.1 hPa SO 5.9 km/h 11.3 km/h 60.5% 0.0 mm
10:34 21.2 °C 13.1 °C 1014.9 hPa SSO 5 km/h 9.7 km/h 60% 0.0 mm
10:39 21.6 °C 13.2 °C 1014.9 hPa SE 3.8 km/h 11.1 km/h 58.9% 0.0 mm
10:44 21.9 °C 12.8 °C 1014.9 hPa OSO 3.2 km/h 11.3 km/h 56.2% 0.0 mm
10:49 22.1 °C 12.8 °C 1014.9 hPa Oeste 4.3 km/h 10 km/h 55.9% 0.0 mm
10:54 22.2 °C 12.7 °C 1014.9 hPa OSO 5 km/h 11.1 km/h 55% 0.0 mm
10:59 22.3 °C 12.5 °C 1014.9 hPa Oeste 5 km/h 13.7 km/h 53.8% 0.0 mm
11:04 22.5 °C 12.3 °C 1014.9 hPa Oeste 5 km/h 14.5 km/h 52.5% 0.0 mm
11:09 22.6 °C 12.6 °C 1014.9 hPa SO 6.3 km/h 11.3 km/h 53% 0.0 mm
11:14 22.8 °C 12.3 °C 1014.9 hPa SO 6.9 km/h 15.6 km/h 51.6% 0.0 mm
11:19 23 °C 12.2 °C 1014.9 hPa OSO 7.4 km/h 16.1 km/h 50.6% 0.0 mm
11:24 23.3 °C 12.5 °C 1014.9 hPa SSO 7.6 km/h 11.3 km/h 50.7% 0.0 mm
11:29 23.6 °C 12.3 °C 1014.9 hPa SSO 7.2 km/h 11.3 km/h 49.2% 0.0 mm
11:34 23.8 °C 12.3 °C 1014.8 hPa SO 6.9 km/h 14.8 km/h 48.5% 0.0 mm
11:39 24 °C 11.8 °C 1014.8 hPa SE 6.9 km/h 14.5 km/h 46.3% 0.0 mm
11:44 24.2 °C 11.9 °C 1014.8 hPa SSE 6.9 km/h 11.3 km/h 46.2% 0.0 mm
11:49 24.4 °C 12 °C 1014.7 hPa Este 6.2 km/h 11.3 km/h 46% 0.0 mm
11:54 24.7 °C 11.8 °C 1014.7 hPa SSE 5.8 km/h 13 km/h 44.6% 0.0 mm
11:59 25 °C 11.9 °C 1014.7 hPa Este 5 km/h 12.9 km/h 43.8% 0.0 mm
12:04 25.3 °C 11.8 °C 1014.6 hPa SSO 4.6 km/h 10 km/h 42.9% 0.0 mm
12:09 25.4 °C 11.7 °C 1014.6 hPa SSO 4.8 km/h 14.8 km/h 42.2% 0.0 mm
12:14 25.5 °C 11.6 °C 1014.6 hPa OSO 5 km/h 14.5 km/h 42% 0.0 mm
12:19 25.6 °C 11.7 °C 1014.5 hPa Este 5.8 km/h 12.9 km/h 41.8% 0.0 mm
12:24 25.8 °C 11.5 °C 1014.5 hPa Este 6.5 km/h 9.7 km/h 40.9% 0.0 mm
12:29 26.1 °C 11.4 °C 1014.5 hPa OSO 4.8 km/h 8 km/h 39.8% 0.0 mm
12:34 26.5 °C 11.4 °C 1014.3 hPa Oeste 3.9 km/h 9.5 km/h 39% 0.0 mm
12:39 26.7 °C 11.4 °C 1014.3 hPa SSE 4.3 km/h 9.7 km/h 38.4% 0.0 mm
12:44 26.9 °C 11.5 °C 1014.3 hPa Sur 4.7 km/h 10 km/h 38.3% 0.0 mm
12:49 27 °C 11.4 °C 1014.0 hPa ENE 4.9 km/h 9.7 km/h 38% 0.0 mm
12:54 27.1 °C 11.5 °C 1014.0 hPa Este 5 km/h 9.7 km/h 38% 0.0 mm
12:59 27.3 °C 11.3 °C 1014.0 hPa OSO 4.2 km/h 11.9 km/h 37% 0.0 mm
13:04 27.4 °C 11.4 °C 1013.8 hPa Oeste 3.9 km/h 11.3 km/h 36.8% 0.0 mm
13:09 27.5 °C 11.4 °C 1013.8 hPa Oeste 5.6 km/h 11.3 km/h 36.7% 0.0 mm
13:14 27.8 °C 11.2 °C 1013.8 hPa SSO 6.5 km/h 9.7 km/h 35.7% 0.0 mm
13:19 28.2 °C 11.2 °C 1013.6 hPa NO 5.5 km/h 13.7 km/h 34.8% 0.0 mm
13:24 28.2 °C 11.3 °C 1013.6 hPa North 5 km/h 14.5 km/h 35% 0.0 mm
13:29 28.3 °C 11.2 °C 1013.6 hPa ONO 5.9 km/h 12.9 km/h 34.6% 0.0 mm
13:34 28.5 °C 10.7 °C 1013.4 hPa SO 6.5 km/h 11.3 km/h 33.1% 0.0 mm
13:39 28.8 °C 10.9 °C 1013.4 hPa ONO 5.6 km/h 11.3 km/h 33% 0.0 mm
13:44 29 °C 10.7 °C 1013.4 hPa SO 5 km/h 9.7 km/h 32.1% 0.0 mm
13:49 29.2 °C 10.6 °C 1013.1 hPa SE 5 km/h 11.1 km/h 31.7% 0.0 mm
13:54 29.3 °C 10.6 °C 1013.1 hPa North 5 km/h 17.2 km/h 31.3% 0.0 mm
13:59 29.3 °C 10.4 °C 1013.1 hPa OSO 5.5 km/h 17.7 km/h 31% 0.0 mm
14:04 29.3 °C 10.2 °C 1012.8 hPa NO 5.8 km/h 16.1 km/h 30.4% 0.0 mm
14:09 29.5 °C 10.2 °C 1012.8 hPa NNO 5.3 km/h 9.7 km/h 30.3% 0.0 mm
14:14 29.7 °C 9.9 °C 1012.8 hPa SSO 5 km/h 14.8 km/h 29.3% 0.0 mm
14:19 29.9 °C 9.9 °C 1012.5 hPa SSO 5.5 km/h 14.5 km/h 29% 0.0 mm
14:24 30.1 °C 9.9 °C 1012.5 hPa Sur 5.8 km/h 14.5 km/h 28.6% 0.0 mm
14:29 30.2 °C 9.7 °C 1012.5 hPa Este 7.4 km/h 12.9 km/h 28.1% 0.0 mm
14:34 30.3 °C 9.7 °C 1012.3 hPa SSE 8.4 km/h 13 km/h 27.9% 0.0 mm
14:39 30.4 °C 9.3 °C 1012.3 hPa SSO 7.5 km/h 14.8 km/h 27% 0.0 mm
14:44 30.6 °C 9.5 °C 1012.3 hPa Sur 6.9 km/h 14.5 km/h 27.2% 0.0 mm
14:49 30.8 °C 9.3 °C 1012.0 hPa SSE 6.2 km/h 16.7 km/h 26.4% 0.0 mm
14:54 30.9 °C 9.2 °C 1012.0 hPa SE 5.8 km/h 16.1 km/h 26% 0.0 mm
14:59 30.9 °C 9.1 °C 1012.0 hPa SSE 7 km/h 12.9 km/h 26% 0.0 mm
15:04 31 °C 9.2 °C 1011.7 hPa SSO 7.6 km/h 9.7 km/h 26% 0.0 mm
15:09 31.2 °C 9.4 °C 1011.7 hPa NNE 5.8 km/h 11.1 km/h 26% 0.0 mm
15:14 31.3 °C 9.4 °C 1011.7 hPa NO 4.7 km/h 11.9 km/h 25.9% 0.0 mm
15:19 31.3 °C 9.4 °C 1011.7 hPa ONO 5.6 km/h 11.3 km/h 25.9% 0.0 mm
15:24 31.5 °C 9.3 °C 1011.7 hPa NNO 6.5 km/h 13 km/h 25.5% 0.0 mm
15:29 31.6 °C 9.2 °C 1011.7 hPa North 6.5 km/h 12.9 km/h 25% 0.0 mm
15:34 31.7 °C 9.2 °C 1011.6 hPa North 6.5 km/h 11.3 km/h 25% 0.0 mm
15:39 31.8 °C 8.6 °C 1011.6 hPa SSE 5.5 km/h 16.7 km/h 23.7% 0.0 mm
15:44 31.7 °C 8.5 °C 1011.6 hPa ESE 5 km/h 16.7 km/h 23.7% 0.0 mm
15:49 31.8 °C 8.9 °C 1011.4 hPa ENE 7.5 km/h 16.7 km/h 24.4% 0.0 mm
15:54 31.8 °C 10.2 °C 1011.4 hPa ESE 8.7 km/h 28.6 km/h 26.6% 0.0 mm
15:59 31.6 °C 10.4 °C 1011.4 hPa ESE 12.1 km/h 29.6 km/h 27.2% 0.0 mm
16:04 31.7 °C 9.8 °C 1011.3 hPa ESE 14 km/h 29 km/h 26% 0.0 mm
16:09 31.5 °C 10.1 °C 1011.3 hPa ESE 15.3 km/h 28.2 km/h 26.8% 0.0 mm
16:14 31.4 °C 10.4 °C 1011.3 hPa ESE 16.1 km/h 27.4 km/h 27.4% 0.0 mm
16:19 31.4 °C 9.9 °C 1011.2 hPa Este 16.1 km/h 29.1 km/h 26.6% 0.0 mm
16:24 31.3 °C 10 °C 1011.2 hPa ESE 16.1 km/h 29.6 km/h 26.9% 0.0 mm
16:29 31.3 °C 10.2 °C 1011.2 hPa Este 16.3 km/h 27.8 km/h 27.3% 0.0 mm
16:34 31.2 °C 10.9 °C 1010.9 hPa Este 16.4 km/h 27.8 km/h 28.7% 0.0 mm
16:39 31.2 °C 10.9 °C 1010.9 hPa ESE 17.4 km/h 27.8 km/h 28.8% 0.0 mm
16:44 31.1 °C 10.6 °C 1010.9 hPa ESE 18 km/h 28.2 km/h 28.5% 0.0 mm
16:49 31.1 °C 10.4 °C 1010.8 hPa ESE 17 km/h 27.4 km/h 27.9% 0.0 mm
16:54 31.2 °C 10.3 °C 1010.8 hPa SE 16.4 km/h 26.2 km/h 27.5% 0.0 mm
16:59 31.2 °C 10.1 °C 1010.8 hPa ESE 16.9 km/h 26.2 km/h 27.1% 0.0 mm
17:04 31.3 °C 10.1 °C 1010.7 hPa ESE 17.2 km/h 25.9 km/h 27.1% 0.0 mm
17:09 31.4 °C 9.8 °C 1010.7 hPa SE 16.5 km/h 25.7 km/h 26.3% 0.0 mm
17:14 31.6 °C 10 °C 1010.7 hPa ESE 16.1 km/h 29.1 km/h 26.5% 0.0 mm
17:19 31.6 °C 9.8 °C 1010.6 hPa SE 14.6 km/h 29.6 km/h 26% 0.0 mm
17:24 31.7 °C 10.1 °C 1010.6 hPa ESE 13.7 km/h 29 km/h 26.6% 0.0 mm
17:29 31.8 °C 9.9 °C 1010.6 hPa SE 13.9 km/h 24.1 km/h 26% 0.0 mm
17:34 31.7 °C 9.7 °C 1010.4 hPa SE 14 km/h 25.9 km/h 25.8% 0.0 mm
17:39 31.6 °C 9.7 °C 1010.4 hPa SE 15.2 km/h 25.9 km/h 25.9% 0.0 mm
17:44 31.4 °C 9.6 °C 1010.4 hPa SE 16.1 km/h 25.9 km/h 26% 0.0 mm
17:49 31.4 °C 9.6 °C 1010.4 hPa SE 16.3 km/h 25.7 km/h 26% 0.0 mm
17:54 31.6 °C 9.7 °C 1010.4 hPa ESE 16.4 km/h 19 km/h 25.9% 0.0 mm
17:59 31.6 °C 9.8 °C 1010.4 hPa ESE 14.5 km/h 20.4 km/h 26% 0.0 mm
18:04 31.8 °C 9.7 °C 1010.2 hPa SE 13.7 km/h 22.5 km/h 25.6% 0.0 mm
18:09 31.8 °C 9.5 °C 1010.2 hPa SE 12.8 km/h 25.9 km/h 25.3% 0.0 mm
18:14 31.7 °C 9.3 °C 1010.2 hPa SE 12.2 km/h 25.7 km/h 25% 0.0 mm
18:19 31.7 °C 9.1 °C 1010.1 hPa SSE 13.8 km/h 27.8 km/h 24.8% 0.0 mm
18:23 31.7 °C 8.7 °C 1010.1 hPa SE 14.8 km/h 27.8 km/h 24% 0.0 mm
18:29 31.7 °C 8.7 °C 1010.1 hPa SE 15.8 km/h 24.1 km/h 24.1% 0.0 mm
18:34 31.8 °C 9.2 °C 1010.0 hPa SSE 16.4 km/h 24.1 km/h 24.8% 0.0 mm
18:39 31.8 °C 9.3 °C 1010.0 hPa SSE 14.9 km/h 22.5 km/h 25% 0.0 mm
18:44 31.7 °C 9.2 °C 1010.0 hPa SSE 14 km/h 24.5 km/h 24.8% 0.0 mm
18:49 31.7 °C 9.3 °C 1009.8 hPa SE 14 km/h 25.9 km/h 25% 0.0 mm
18:54 31.6 °C 9.2 °C 1009.8 hPa SE 14 km/h 25.9 km/h 25% 0.0 mm
18:59 31.7 °C 9.2 °C 1009.8 hPa SE 14.4 km/h 22.2 km/h 25% 0.0 mm
19:04 31.7 °C 9 °C 1009.8 hPa SSE 14.8 km/h 24.5 km/h 24.6% 0.0 mm
19:09 31.7 °C 8.9 °C 1009.8 hPa SSE 13.7 km/h 24.1 km/h 24.4% 0.0 mm
19:14 31.8 °C 8.8 °C 1009.8 hPa SE 13 km/h 19.3 km/h 24.1% 0.0 mm
19:19 31.8 °C 8.7 °C 1009.6 hPa SSE 10.3 km/h 15.6 km/h 24% 0.0 mm
19:24 31.8 °C 8.7 °C 1009.6 hPa SSE 8.7 km/h 14.8 km/h 24% 0.0 mm
19:29 31.7 °C 8.6 °C 1009.7 hPa SSE 9.2 km/h 17.2 km/h 23.9% 0.0 mm
19:34 31.6 °C 8.5 °C 1009.7 hPa SSE 9.5 km/h 17.7 km/h 24% 0.0 mm
19:39 31.5 °C 8.5 °C 1009.7 hPa SSE 8.8 km/h 16.1 km/h 24% 0.0 mm
19:44 31.6 °C 8.5 °C 1009.7 hPa SSE 8.4 km/h 14.5 km/h 24% 0.0 mm
19:49 31.6 °C 8.5 °C 1009.7 hPa SSE 8.4 km/h 16.7 km/h 24% 0.0 mm
19:54 31.4 °C 8.2 °C 1009.7 hPa SE 8.4 km/h 17.2 km/h 23.8% 0.0 mm
19:59 31.3 °C 8.3 °C 1009.8 hPa ESE 9.6 km/h 17.7 km/h 23.9% 0.0 mm
20:04 31.3 °C 8.9 °C 1009.8 hPa Este 10.3 km/h 12.9 km/h 25% 0.0 mm
20:09 31.3 °C 9.2 °C 1009.8 hPa Sur 6.8 km/h 8.4 km/h 25.5% 0.0 mm
20:14 31.2 °C 9.9 °C 1010.0 hPa OSO 4.6 km/h 9.3 km/h 26.9% 0.0 mm
20:19 31 °C 10.6 °C 1010.0 hPa OSO 4.8 km/h 14 km/h 28.6% 0.0 mm
20:24 30.5 °C 10.8 °C 1010.0 hPa ONO 5 km/h 14.8 km/h 29.7% 0.0 mm
20:29 30.2 °C 10 °C 1010.2 hPa NNE 5.5 km/h 14.5 km/h 28.6% 0.0 mm
20:34 29.9 °C 9.7 °C 1010.2 hPa NE 5.8 km/h 9.7 km/h 28.6% 0.0 mm
20:39 29.7 °C 10.2 °C 1010.2 hPa NNE 5.1 km/h 8 km/h 29.7% 0.0 mm
20:44 29.7 °C 10.8 °C 1010.2 hPa OSO 4.7 km/h 6.4 km/h 31% 0.0 mm
20:49 29.8 °C 10.9 °C 1010.2 hPa OSO 3.4 km/h 4.8 km/h 31.1% 0.0 mm
20:54 29.7 °C 11.2 °C 1010.2 hPa SSO 2.9 km/h 8.7 km/h 31.9% 0.0 mm
20:59 29.4 °C 11.4 °C 1010.3 hPa OSO 3.5 km/h 11.1 km/h 32.9% 0.0 mm
21:04 28.9 °C 11.4 °C 1010.3 hPa SO 3.9 km/h 11.3 km/h 33.9% 0.0 mm
21:09 28.7 °C 11.3 °C 1010.3 hPa SO 5.4 km/h 9.3 km/h 34.2% 0.0 mm
21:14 28.4 °C 11.5 °C 1010.4 hPa SO 6.5 km/h 9.7 km/h 35% 0.0 mm
21:19 28.2 °C 11.5 °C 1010.4 hPa SO 5.5 km/h 10 km/h 35.5% 0.0 mm
21:24 28 °C 11.5 °C 1010.4 hPa SO 5 km/h 9.7 km/h 36% 0.0 mm
21:29 27.8 °C 11.4 °C 1010.5 hPa SO 4.8 km/h 9.7 km/h 36% 0.0 mm
21:34 27.8 °C 11.3 °C 1010.5 hPa SO 4.7 km/h 5.6 km/h 36% 0.0 mm
21:39 27.7 °C 11.3 °C 1010.5 hPa Oeste 4.2 km/h 8.4 km/h 36% 0.0 mm
21:44 27.4 °C 11.2 °C 1010.7 hPa OSO 3.9 km/h 13 km/h 36.3% 0.0 mm
21:49 27.1 °C 11.2 °C 1010.7 hPa SO 5.7 km/h 12.9 km/h 37.3% 0.0 mm
21:54 26.8 °C 11.3 °C 1010.7 hPa OSO 6.9 km/h 14.8 km/h 38% 0.0 mm
21:59 26.5 °C 11.4 °C 1010.8 hPa OSO 8 km/h 14.5 km/h 39% 0.0 mm
22:04 26.2 °C 11.6 °C 1010.8 hPa SO 8.4 km/h 15.6 km/h 40% 0.0 mm
22:09 26 °C 11.7 °C 1010.8 hPa OSO 7.9 km/h 16.1 km/h 41% 0.0 mm
22:14 25.7 °C 11.7 °C 1011.0 hPa SO 7.6 km/h 12.9 km/h 41.4% 0.0 mm
22:19 25.6 °C 11.7 °C 1011.0 hPa SSO 7.6 km/h 11.3 km/h 42% 0.0 mm
22:24 25.4 °C 11.6 °C 1011.0 hPa SSO 7.6 km/h 14.8 km/h 42% 0.0 mm
22:29 25.3 °C 11.6 °C 1011.1 hPa SO 8.1 km/h 14.5 km/h 42.5% 0.0 mm
22:34 25.2 °C 11.7 °C 1011.1 hPa SSO 8.4 km/h 12.9 km/h 43% 0.0 mm
22:39 25.1 °C 11.6 °C 1011.1 hPa SSO 7.1 km/h 11.3 km/h 43% 0.0 mm
22:44 25 °C 11.7 °C 1011.4 hPa Sur 6.5 km/h 11.3 km/h 43.4% 0.0 mm
22:49 24.8 °C 11.7 °C 1011.4 hPa SSO 5.5 km/h 8 km/h 44% 0.0 mm
22:54 24.7 °C 11.6 °C 1011.4 hPa Sur 5 km/h 9.5 km/h 44% 0.0 mm
22:59 24.6 °C 11.8 °C 1011.6 hPa SSO 5 km/h 9.7 km/h 44.8% 0.0 mm
23:04 24.4 °C 11.7 °C 1011.6 hPa SSO 5 km/h 9.7 km/h 45% 0.0 mm
23:09 24.3 °C 11.6 °C 1011.6 hPa SSO 4.8 km/h 10 km/h 45% 0.0 mm
23:14 24.2 °C 11.6 °C 1011.8 hPa SO 4.7 km/h 11.3 km/h 45.3% 0.0 mm
23:19 24 °C 11.7 °C 1011.8 hPa Sur 5.9 km/h 11.3 km/h 46% 0.0 mm
23:24 23.9 °C 11.6 °C 1011.8 hPa Sur 6.4 km/h 9.5 km/h 46% 0.0 mm
23:29 23.8 °C 11.7 °C 1011.8 hPa SSE 6.1 km/h 15.6 km/h 46.5% 0.0 mm
23:34 23.7 °C 11.7 °C 1011.8 hPa SSE 5.8 km/h 16.1 km/h 47% 0.0 mm
23:39 23.5 °C 11.7 °C 1011.8 hPa SE 7.5 km/h 14.5 km/h 47.5% 0.0 mm
23:44 23.4 °C 11.8 °C 1011.8 hPa SSE 8.7 km/h 11.3 km/h 48% 0.0 mm
23:49 23.3 °C 11.6 °C 1011.8 hPa Sur 6.8 km/h 9.7 km/h 48% 0.0 mm
23:54 23.2 °C 11.8 °C 1011.8 hPa Sur 5.8 km/h 8 km/h 48.9% 0.0 mm
23:59 23.1 °C 11.8 °C 1011.8 hPa Sur 4.1 km/h 8 km/h 49% 0.0 mm
Murcia-Puente Tocinos, España
Compliments of Weather Underground - 3.25 mb

La estación de MeteoMurcia.com, publica sus datos en los siguientes proyectos:

Weather Underground PWS IMURCIAP2 Meteoclimatic www.awekas.at

W3Counter
Web Analytics